Time,TemperatureF,DewpointF,PressureIn,WindDirection,WindDirectionDegrees,WindSpeedMPH,WindSpeedGustMPH,Humidity,HourlyPrecipIn,Conditions,Clouds,dailyrainin,SoftwareType,DateUTC
2013-07-10 00:04:00,76.7,73.9,29.89,South,191,0.0,0.0,91,0.00,,,0.00,Wunderground v.1.15,2013-07-10 05:04:00,
2013-07-10 00:08:00,76.9,74.1,29.89,South,190,0.0,0.0,91,0.00,,,0.00,Wunderground v.1.15,2013-07-10 05:08:00,
2013-07-10 00:13:00,77.1,74.3,29.89,South,191,0.0,0.0,91,0.00,,,0.00,Wunderground v.1.15,2013-07-10 05:13:00,
2013-07-10 00:24:00,77.3,74.5,29.89,South,191,0.0,0.0,91,0.00,,,0.00,Wunderground v.1.15,2013-07-10 05:24:00,
2013-07-10 00:34:00,77.3,74.5,29.89,South,191,0.0,0.0,91,0.00,,,0.00,Wunderground v.1.15,2013-07-10 05:34:00,
2013-07-10 00:43:00,77.3,74.5,29.89,South,191,0.0,0.0,91,0.00,,,0.00,Wunderground v.1.15,2013-07-10 05:43:00,
2013-07-10 00:53:00,77.1,74.3,29.89,South,191,0.0,0.0,91,0.00,,,0.00,Wunderground v.1.15,2013-07-10 05:53:00,
2013-07-10 01:03:00,77.1,74.3,29.89,South,191,0.0,0.0,91,0.00,,,0.00,Wunderground v.1.15,2013-07-10 06:03:00,
2013-07-10 01:13:00,77.1,74.3,29.89,South,190,0.0,0.0,91,0.00,,,0.00,Wunderground v.1.15,2013-07-10 06:13:00,
2013-07-10 01:23:00,77.1,74.3,29.88,South,191,0.0,0.0,91,0.00,,,0.00,Wunderground v.1.15,2013-07-10 06:23:00,
2013-07-10 01:33:00,77.1,74.3,29.88,South,191,0.0,0.0,91,0.00,,,0.00,Wunderground v.1.15,2013-07-10 06:33:00,
2013-07-10 01:43:00,76.9,74.1,29.88,South,190,0.0,0.0,91,0.00,,,0.00,Wunderground v.1.15,2013-07-10 06:43:00,
2013-07-10 01:53:00,76.7,73.9,29.88,South,190,0.0,0.0,91,0.00,,,0.00,Wunderground v.1.15,2013-07-10 06:53:00,
2013-07-10 02:04:00,76.9,74.1,29.88,South,190,0.0,0.0,91,0.00,,,0.00,Wunderground v.1.15,2013-07-10 07:04:00,
2013-07-10 02:13:00,76.7,73.9,29.88,South,191,0.0,0.0,91,0.00,,,0.00,Wunderground v.1.15,2013-07-10 07:13:00,
2013-07-10 02:24:00,76.6,73.8,29.87,South,190,0.0,0.0,91,0.00,,,0.00,Wunderground v.1.15,2013-07-10 07:24:00,
2013-07-10 02:33:00,76.4,73.6,29.87,South,191,0.0,0.0,91,0.00,,,0.00,Wunderground v.1.15,2013-07-10 07:33:00,
2013-07-10 02:43:00,76.6,73.8,29.86,South,191,0.0,0.0,91,0.00,,,0.00,Wunderground v.1.15,2013-07-10 07:43:00,
2013-07-10 02:53:00,76.6,73.8,29.86,South,191,0.0,0.0,91,0.00,,,0.00,Wunderground v.1.15,2013-07-10 07:53:00,
2013-07-10 03:03:00,76.4,73.6,29.87,South,191,0.0,0.0,91,0.00,,,0.00,Wunderground v.1.15,2013-07-10 08:03:00,
2013-07-10 03:13:00,76.6,73.8,29.86,South,191,0.0,0.0,91,0.00,,,0.00,Wunderground v.1.15,2013-07-10 08:13:00,
2013-07-10 03:24:00,76.6,73.8,29.86,South,191,0.0,0.0,91,0.00,,,0.00,Wunderground v.1.15,2013-07-10 08:24:00,
2013-07-10 03:33:00,76.6,73.8,29.86,South,191,0.0,0.0,91,0.00,,,0.00,Wunderground v.1.15,2013-07-10 08:33:00,
2013-07-10 03:43:00,76.4,73.6,29.85,South,190,0.0,0.0,91,0.00,,,0.00,Wunderground v.1.15,2013-07-10 08:43:00,
2013-07-10 03:53:00,76.0,73.2,29.85,South,190,0.0,0.0,91,0.00,,,0.00,Wunderground v.1.15,2013-07-10 08:53:00,
2013-07-10 04:03:00,75.9,73.1,29.85,South,190,0.0,0.0,91,0.00,,,0.00,Wunderground v.1.15,2013-07-10 09:03:00,
2013-07-10 04:13:00,75.5,72.7,29.85,South,190,0.0,0.0,91,0.00,,,0.00,Wunderground v.1.15,2013-07-10 09:13:00,
2013-07-10 04:23:00,75.5,72.7,29.85,South,191,0.0,0.0,91,0.00,,,0.00,Wunderground v.1.15,2013-07-10 09:23:00,
2013-07-10 04:33:00,76.0,73.2,29.84,South,191,0.0,1.0,91,0.00,,,0.00,Wunderground v.1.15,2013-07-10 09:33:00,
2013-07-10 04:43:00,76.2,73.4,29.83,South,190,0.0,0.0,91,0.00,,,0.00,Wunderground v.1.15,2013-07-10 09:43:00,
2013-07-10 04:53:00,76.2,73.4,29.84,South,190,0.0,0.0,91,0.00,,,0.00,Wunderground v.1.15,2013-07-10 09:53:00,
2013-07-10 05:03:00,76.0,73.2,29.84,South,190,0.0,0.0,91,0.00,,,0.00,Wunderground v.1.15,2013-07-10 10:03:00,
2013-07-10 05:13:00,75.9,73.1,29.83,South,190,0.0,0.0,91,0.00,,,0.00,Wunderground v.1.15,2013-07-10 10:13:00,
2013-07-10 05:23:00,75.7,72.9,29.83,West,259,0.0,0.0,91,0.00,,,0.00,Wunderground v.1.15,2013-07-10 10:23:00,
2013-07-10 05:33:00,75.5,72.7,29.83,South,175,0.0,0.0,91,0.00,,,0.00,Wunderground v.1.15,2013-07-10 10:33:00,
2013-07-10 05:44:00,75.5,72.7,29.83,SSE,164,0.0,0.0,91,0.00,,,0.00,Wunderground v.1.15,2013-07-10 10:44:00,
2013-07-10 05:53:00,75.7,72.9,29.82,SW,219,0.0,0.0,91,0.00,,,0.00,Wunderground v.1.15,2013-07-10 10:53:00,
2013-07-10 06:03:00,75.5,72.7,29.82,WSW,251,0.0,0.0,91,0.00,,,0.00,Wunderground v.1.15,2013-07-10 11:03:00,
2013-07-10 06:13:00,75.7,72.9,29.83,SE,126,0.0,0.0,91,0.00,,,0.00,Wunderground v.1.15,2013-07-10 11:13:00,
2013-07-10 06:23:00,75.9,73.1,29.83,NNE,14,0.0,0.0,91,0.00,,,0.00,Wunderground v.1.15,2013-07-10 11:23:00,
2013-07-10 06:33:00,76.4,73.6,29.84,SE,132,0.0,0.0,91,0.00,,,0.00,Wunderground v.1.15,2013-07-10 11:33:00,
2013-07-10 06:44:00,76.6,73.8,29.85,SE,132,0.0,0.0,91,0.00,,,0.00,Wunderground v.1.15,2013-07-10 11:44:00,
2013-07-10 06:58:00,77.1,74.3,29.85,NNW,343,0.0,0.0,91,0.00,,,0.00,Wunderground v.1.15,2013-07-10 11:58:00,
2013-07-10 07:04:00,77.4,74.6,29.85,NNW,343,0.0,0.0,91,0.00,,,0.00,Wunderground v.1.15,2013-07-10 12:04:00,
2013-07-10 07:13:00,77.8,75.0,29.86,NNW,343,0.0,0.0,91,0.00,,,0.00,Wunderground v.1.15,2013-07-10 12:13:00,
2013-07-10 07:24:00,78.1,75.3,29.86,NNW,343,0.0,0.0,91,0.00,,,0.00,Wunderground v.1.15,2013-07-10 12:24:00,
2013-07-10 07:33:00,78.7,75.8,29.85,ENE,62,0.0,0.0,91,0.00,,,0.00,Wunderground v.1.15,2013-07-10 12:33:00,
2013-07-10 07:43:00,79.2,76.3,29.86,ENE,62,0.0,0.0,91,0.00,,,0.00,Wunderground v.1.15,2013-07-10 12:43:00,
2013-07-10 07:53:00,79.6,76.7,29.85,NNE,32,0.0,0.0,91,0.00,,,0.00,Wunderground v.1.15,2013-07-10 12:53:00,
2013-07-10 08:04:00,79.7,76.8,29.85,North,355,0.0,0.0,91,0.00,,,0.00,Wunderground v.1.15,2013-07-10 13:04:00,
2013-07-10 08:13:00,79.9,77.0,29.85,North,355,0.0,0.0,91,0.00,,,0.00,Wunderground v.1.15,2013-07-10 13:13:00,
2013-07-10 08:24:00,80.1,76.9,29.84,NW,311,0.0,0.0,90,0.00,,,0.00,Wunderground v.1.15,2013-07-10 13:24:00,
2013-07-10 08:34:00,79.7,76.2,29.84,NW,311,0.0,0.0,89,0.00,,,0.00,Wunderground v.1.15,2013-07-10 13:34:00,
2013-07-10 08:43:00,79.6,76.1,29.84,NW,311,0.0,0.0,89,0.00,,,0.01,Wunderground v.1.15,2013-07-10 13:43:00,
2013-07-10 08:53:00,79.0,75.1,29.86,WSW,249,0.0,3.0,88,0.00,,,0.01,Wunderground v.1.15,2013-07-10 13:53:00,
2013-07-10 09:04:00,78.8,75.3,29.87,South,183,0.0,0.0,89,0.00,,,0.01,Wunderground v.1.15,2013-07-10 14:04:00,
2013-07-10 09:13:00,78.7,75.2,29.86,South,186,0.0,0.0,89,0.00,,,0.01,Wunderground v.1.15,2013-07-10 14:13:00,
2013-07-10 09:23:00,76.6,71.0,29.91,South,186,2.0,4.0,83,0.00,,,0.01,Wunderground v.1.15,2013-07-10 14:23:00,
2013-07-10 09:34:00,73.6,68.1,29.91,SSW,199,4.0,4.0,83,0.00,,,0.01,Wunderground v.1.15,2013-07-10 14:34:00,
2013-07-10 09:43:00,72.8,68.4,29.92,South,183,1.0,1.0,86,0.00,,,0.01,Wunderground v.1.15,2013-07-10 14:43:00,
2013-07-10 09:53:00,72.6,68.5,29.93,South,182,1.0,6.0,87,0.00,,,0.01,Wunderground v.1.15,2013-07-10 14:53:00,
2013-07-10 10:04:00,73.5,70.4,29.93,South,182,5.0,5.0,90,0.00,,,0.01,Wunderground v.1.15,2013-07-10 15:04:00,
2013-07-10 10:13:00,74.1,71.0,29.94,SSW,198,4.0,4.0,90,0.00,,,0.01,Wunderground v.1.15,2013-07-10 15:13:00,
2013-07-10 10:23:00,74.0,70.9,29.95,South,186,2.0,2.0,90,0.00,,,0.01,Wunderground v.1.15,2013-07-10 15:23:00,
2013-07-10 10:34:00,74.3,71.5,29.96,South,174,1.0,4.0,91,0.00,,,0.01,Wunderground v.1.15,2013-07-10 15:34:00,
2013-07-10 10:43:00,74.5,71.7,29.96,SW,221,0.0,2.0,91,0.00,,,0.01,Wunderground v.1.15,2013-07-10 15:43:00,
2013-07-10 10:53:00,74.7,71.9,29.97,SW,234,1.0,3.0,91,0.00,,,0.01,Wunderground v.1.15,2013-07-10 15:53:00,
2013-07-10 11:03:00,75.0,72.2,29.97,SSW,193,0.0,1.0,91,0.00,,,0.01,Wunderground v.1.15,2013-07-10 16:03:00,
2013-07-10 11:13:00,76.0,73.2,29.97,SW,217,0.0,3.0,91,0.00,,,0.01,Wunderground v.1.15,2013-07-10 16:13:00,
2013-07-10 11:23:00,76.4,73.6,29.97,SW,223,0.0,2.0,91,0.00,,,0.01,Wunderground v.1.15,2013-07-10 16:23:00,
2013-07-10 11:34:00,77.3,74.5,29.96,SW,215,0.0,0.0,91,0.00,,,0.01,Wunderground v.1.15,2013-07-10 16:34:00,
2013-07-10 11:43:00,78.5,75.7,29.96,South,181,0.0,0.0,91,0.00,,,0.01,Wunderground v.1.15,2013-07-10 16:43:00,
2013-07-10 11:53:00,80.8,77.6,29.95,East,92,0.0,0.0,90,0.00,,,0.01,Wunderground v.1.15,2013-07-10 16:53:00,
2013-07-10 12:03:00,82.1,77.1,29.95,South,173,0.0,3.0,85,0.00,,,0.01,Wunderground v.1.15,2013-07-10 17:03:00,
2013-07-10 12:13:00,83.4,77.0,29.95,East,82,0.0,1.0,81,0.00,,,0.01,Wunderground v.1.15,2013-07-10 17:13:00,
2013-07-10 12:23:00,85.0,77.4,29.94,SE,136,0.0,1.0,78,0.00,,,0.01,Wunderground v.1.15,2013-07-10 17:23:00,
2013-07-10 12:33:00,85.6,75.9,29.94,North,5,0.0,2.0,73,0.00,,,0.01,Wunderground v.1.15,2013-07-10 17:33:00,
2013-07-10 12:43:00,85.6,73.8,29.94,North,355,0.0,0.0,68,0.00,,,0.01,Wunderground v.1.15,2013-07-10 17:43:00,
2013-07-10 12:53:00,86.0,71.9,29.93,North,5,0.0,0.0,63,0.00,,,0.01,Wunderground v.1.15,2013-07-10 17:53:00,
2013-07-10 13:03:00,86.7,70.2,29.93,SE,132,0.0,0.0,58,0.00,,,0.01,Wunderground v.1.15,2013-07-10 18:03:00,
2013-07-10 13:13:00,87.7,70.6,29.92,North,355,0.0,0.0,57,0.00,,,0.01,Wunderground v.1.15,2013-07-10 18:13:00,
2013-07-10 13:23:00,88.1,68.8,29.92,ESE,117,0.0,0.0,53,0.00,,,0.01,Wunderground v.1.15,2013-07-10 18:23:00,
2013-07-10 13:38:00,87.5,68.8,29.92,NNE,20,0.0,0.0,54,0.00,,,0.01,Wunderground v.1.15,2013-07-10 18:38:00,
2013-07-10 13:44:00,86.9,70.3,29.92,North,355,0.0,0.0,58,0.00,,,0.01,Wunderground v.1.15,2013-07-10 18:44:00,
2013-07-10 13:53:00,86.9,71.8,29.91,NE,43,0.0,0.0,61,0.00,,,0.01,Wunderground v.1.15,2013-07-10 18:53:00,
2013-07-10 14:03:00,87.3,68.1,29.91,NNE,16,0.0,0.0,53,0.00,,,0.01,Wunderground v.1.15,2013-07-10 19:03:00,
2013-07-10 14:13:00,87.7,68.4,29.91,NNE,32,0.0,0.0,53,0.00,,,0.01,Wunderground v.1.15,2013-07-10 19:13:00,
2013-07-10 14:23:00,88.7,71.5,29.90,NNW,333,0.0,0.0,57,0.00,,,0.01,Wunderground v.1.15,2013-07-10 19:23:00,
2013-07-10 14:34:00,89.2,66.9,29.89,North,360,0.0,0.0,48,0.00,,,0.01,Wunderground v.1.15,2013-07-10 19:34:00,
2013-07-10 14:43:00,89.6,66.1,29.90,NNE,32,0.0,0.0,46,0.00,,,0.01,Wunderground v.1.15,2013-07-10 19:43:00,
2013-07-10 14:58:00,89.6,66.1,29.89,NW,316,0.0,0.0,46,0.00,,,0.01,Wunderground v.1.15,2013-07-10 19:58:00,
2013-07-10 15:08:00,89.8,69.3,29.89,North,355,0.0,0.0,51,0.00,,,0.01,Wunderground v.1.15,2013-07-10 20:08:00,
2013-07-10 15:14:00,89.8,66.3,29.89,NE,37,0.0,0.0,46,0.00,,,0.01,Wunderground v.1.15,2013-07-10 20:14:00,
2013-07-10 15:23:00,89.4,65.9,29.88,NNE,19,0.0,0.0,46,0.00,,,0.01,Wunderground v.1.15,2013-07-10 20:23:00,
2013-07-10 15:38:00,89.8,65.6,29.88,North,360,0.0,0.0,45,0.00,,,0.01,Wunderground v.1.15,2013-07-10 20:38:00,
2013-07-10 15:43:00,89.6,64.1,29.88,NNE,26,0.0,0.0,43,0.00,,,0.01,Wunderground v.1.15,2013-07-10 20:43:00,
2013-07-10 15:54:00,89.4,62.6,29.88,NE,56,0.0,0.0,41,0.00,,,0.01,Wunderground v.1.15,2013-07-10 20:54:00,
2013-07-10 16:03:00,89.2,63.8,29.88,NNE,17,0.0,0.0,43,0.00,,,0.01,Wunderground v.1.15,2013-07-10 21:03:00,
2013-07-10 16:14:00,89.6,67.3,29.88,NNW,330,0.0,0.0,48,0.00,,,0.01,Wunderground v.1.15,2013-07-10 21:14:00,
2013-07-10 16:23:00,89.4,66.5,29.88,NE,49,0.0,0.0,47,0.00,,,0.01,Wunderground v.1.15,2013-07-10 21:23:00,
2013-07-10 16:33:00,89.0,64.3,29.88,NW,310,0.0,0.0,44,0.00,,,0.01,Wunderground v.1.15,2013-07-10 21:33:00,
2013-07-10 16:44:00,88.3,63.6,29.88,NNE,13,0.0,0.0,44,0.00,,,0.01,Wunderground v.1.15,2013-07-10 21:44:00,
2013-07-10 16:54:00,88.1,64.7,29.88,NW,322,0.0,0.0,46,0.00,,,0.01,Wunderground v.1.15,2013-07-10 21:54:00,
2013-07-10 17:03:00,87.9,63.9,29.88,North,5,0.0,0.0,45,0.00,,,0.01,Wunderground v.1.15,2013-07-10 22:03:00,
2013-07-10 17:14:00,87.5,62.9,29.88,NE,36,0.0,0.0,44,0.00,,,0.01,Wunderground v.1.15,2013-07-10 22:14:00,
2013-07-10 17:23:00,87.1,63.8,29.88,NW,323,0.0,0.0,46,0.00,,,0.01,Wunderground v.1.15,2013-07-10 22:23:00,
2013-07-10 17:33:00,86.3,63.1,29.88,NNE,17,0.0,0.0,46,0.00,,,0.01,Wunderground v.1.15,2013-07-10 22:33:00,
2013-07-10 17:48:00,85.4,63.5,29.88,North,355,0.0,0.0,48,0.00,,,0.01,Wunderground v.1.15,2013-07-10 22:48:00,
2013-07-10 17:53:00,85.2,63.9,29.88,North,355,0.0,0.0,49,0.00,,,0.01,Wunderground v.1.15,2013-07-10 22:53:00,
2013-07-10 18:08:00,84.6,62.7,29.89,NNE,28,0.0,0.0,48,0.00,,,0.01,Wunderground v.1.15,2013-07-10 23:08:00,
2013-07-10 18:13:00,84.6,63.9,29.89,NNW,338,0.0,0.0,50,0.00,,,0.01,Wunderground v.1.15,2013-07-10 23:13:00,
2013-07-10 18:33:00,84.0,63.4,29.89,North,355,0.0,0.0,50,0.00,,,0.01,Wunderground v.1.15,2013-07-10 23:33:00,
2013-07-10 18:44:00,83.6,63.0,29.90,NNW,338,0.0,0.0,50,0.00,,,0.01,Wunderground v.1.15,2013-07-10 23:44:00,
2013-07-10 18:54:00,82.9,63.5,29.90,NNW,346,0.0,0.0,52,0.00,,,0.01,Wunderground v.1.15,2013-07-10 23:54:00,
2013-07-10 19:03:00,82.5,62.5,29.90,NNE,24,0.0,0.0,51,0.00,,,0.01,Wunderground v.1.15,2013-07-11 00:03:00,
2013-07-10 19:14:00,82.1,62.2,29.90,North,355,0.0,0.0,51,0.00,,,0.01,Wunderground v.1.15,2013-07-11 00:14:00,
2013-07-10 19:23:00,81.8,62.5,29.91,NNW,347,0.0,0.0,52,0.00,,,0.01,Wunderground v.1.15,2013-07-11 00:23:00,
2013-07-10 19:33:00,81.2,62.4,29.91,NW,319,0.0,0.0,53,0.00,,,0.01,Wunderground v.1.15,2013-07-11 00:33:00,
2013-07-10 19:43:00,80.6,62.4,29.92,ENE,59,0.0,0.0,54,0.00,,,0.01,Wunderground v.1.15,2013-07-11 00:43:00,
2013-07-10 19:54:00,80.1,63.5,29.92,North,355,0.0,0.0,57,0.00,,,0.01,Wunderground v.1.15,2013-07-11 00:54:00,
2013-07-10 20:03:00,79.2,62.7,29.92,NW,325,0.0,0.0,57,0.00,,,0.01,Wunderground v.1.15,2013-07-11 01:03:00,
2013-07-10 20:14:00,78.5,62.5,29.92,NNE,19,0.0,0.0,58,0.00,,,0.01,Wunderground v.1.15,2013-07-11 01:14:00,
2013-07-10 20:23:00,78.1,61.6,29.93,NNW,344,0.0,0.0,57,0.00,,,0.01,Wunderground v.1.15,2013-07-11 01:23:00,
2013-07-10 20:33:00,78.0,61.5,29.94,NNE,29,0.0,0.0,57,0.00,,,0.01,Wunderground v.1.15,2013-07-11 01:33:00,
2013-07-10 20:43:00,77.4,60.5,29.94,NNW,344,0.0,0.0,56,0.00,,,0.01,Wunderground v.1.15,2013-07-11 01:43:00,
2013-07-10 20:54:00,76.9,60.5,29.94,NE,34,0.0,0.0,57,0.00,,,0.01,Wunderground v.1.15,2013-07-11 01:54:00,
2013-07-10 21:03:00,76.4,61.0,29.95,NNE,18,0.0,0.0,59,0.00,,,0.01,Wunderground v.1.15,2013-07-11 02:03:00,
2013-07-10 21:13:00,75.5,61.1,29.96,NNE,18,0.0,0.0,61,0.00,,,0.01,Wunderground v.1.15,2013-07-11 02:13:00,
2013-07-10 21:24:00,74.3,61.3,29.97,NNE,18,0.0,0.0,64,0.00,,,0.01,Wunderground v.1.15,2013-07-11 02:24:00,
2013-07-10 21:33:00,73.3,61.7,29.97,NNE,18,0.0,0.0,67,0.00,,,0.01,Wunderground v.1.15,2013-07-11 02:33:00,
2013-07-10 21:43:00,72.4,61.7,29.98,NNE,18,0.0,0.0,69,0.00,,,0.01,Wunderground v.1.15,2013-07-11 02:43:00,
2013-07-10 21:53:00,71.9,62.4,29.98,NNE,18,0.0,0.0,72,0.00,,,0.01,Wunderground v.1.15,2013-07-11 02:53:00,
2013-07-10 22:04:00,71.1,62.0,29.98,NNE,18,0.0,0.0,73,0.00,,,0.01,Wunderground v.1.15,2013-07-11 03:04:00,
2013-07-10 22:13:00,70.3,61.6,29.98,NNE,18,0.0,0.0,74,0.00,,,0.01,Wunderground v.1.15,2013-07-11 03:13:00,
2013-07-10 22:24:00,70.4,61.3,29.98,NNE,18,0.0,0.0,73,0.00,,,0.01,Wunderground v.1.15,2013-07-11 03:24:00,
2013-07-10 22:33:00,70.8,61.3,29.99,NNE,18,0.0,0.0,72,0.00,,,0.01,Wunderground v.1.15,2013-07-11 03:33:00,
2013-07-10 22:43:00,70.6,61.1,29.99,NNE,18,0.0,0.0,72,0.00,,,0.01,Wunderground v.1.15,2013-07-11 03:43:00,
2013-07-10 22:53:00,70.6,60.7,29.99,NNE,18,0.0,0.0,71,0.00,,,0.01,Wunderground v.1.15,2013-07-11 03:53:00,
2013-07-10 23:03:00,70.9,60.2,29.99,NNE,16,0.0,0.0,69,0.00,,,0.01,Wunderground v.1.15,2013-07-11 04:03:00,
2013-07-10 23:08:00,71.1,60.4,29.99,NNE,16,0.0,0.0,69,0.00,,,0.01,Wunderground v.1.15,2013-07-11 04:08:00,
2013-07-10 23:14:00,71.1,60.4,30.00,NNE,16,0.0,0.0,69,0.00,,,0.01,Wunderground v.1.15,2013-07-11 04:14:00,
2013-07-10 23:23:00,70.9,60.6,30.00,NNE,16,0.0,0.0,70,0.00,,,0.01,Wunderground v.1.15,2013-07-11 04:23:00,
2013-07-10 23:28:00,70.8,60.5,30.00,NNE,16,0.0,0.0,70,0.00,,,0.01,Wunderground v.1.15,2013-07-11 04:28:00,
2013-07-10 23:33:00,70.4,60.5,30.00,NNE,16,0.0,0.0,71,0.00,,,0.01,Wunderground v.1.15,2013-07-11 04:33:00,
2013-07-10 23:38:00,70.3,60.8,30.00,NNE,16,0.0,0.0,72,0.00,,,0.01,Wunderground v.1.15,2013-07-11 04:38:00,
2013-07-10 23:43:00,70.1,61.0,30.00,NNE,16,0.0,0.0,73,0.00,,,0.01,Wunderground v.1.15,2013-07-11 04:43:00,
2013-07-10 23:53:00,69.9,61.2,30.00,NNE,16,0.0,0.0,74,0.00,,,0.01,Wunderground v.1.15,2013-07-11 04:53:00,